Time;durP1;ratioP1;P1;durP2;ratioP2;P2;SDS_P1;SDS_P2;PMS_P1;PMS_P2;Temp;Humidity;BMP_temperature;BMP_pressure;BME280_temperature;BME280_humidity;BME280_pressure;Samples;Min_cycle;Max_cycle;Signal;HPM_P1;HPM_P2
2020/12/31 00:02:14;;;;;;;1999.90;999.90;;;;;;;;;;5039112;28;20032;-80
2020/12/31 00:04:40;;;;;;;1999.90;999.90;;;;;;;;;;5042699;28;20029;-81
2020/12/31 00:07:05;;;;;;;1999.90;999.90;;;;;;;;;;5041467;28;20029;-80
2020/12/31 00:09:31;;;;;;;1999.90;999.90;;;;;;;;;;5041363;28;20021;-80
2020/12/31 00:11:57;;;;;;;1999.90;999.90;;;;;;;;;;5040410;28;20075;-81
2020/12/31 00:14:22;;;;;;;1999.90;999.90;;;;;;;;;;5038516;28;20071;-81
2020/12/31 00:16:48;;;;;;;1999.90;999.90;;;;;;;;;;5041459;28;20033;-81
2020/12/31 00:19:13;;;;;;;1999.90;999.90;;;;;;;;;;5039919;28;20486;-81
2020/12/31 00:21:39;;;;;;;1999.90;999.90;;;;;;;;;;5040916;28;20501;-81
2020/12/31 00:24:04;;;;;;;1999.90;999.90;;;;;;;;;;5037318;28;20859;-81
2020/12/31 00:26:30;;;;;;;1999.90;999.90;;;;;;;;;;5044041;28;20112;-81
2020/12/31 00:28:55;;;;;;;1999.90;999.90;;;;;;;;;;5040325;28;20017;-81
2020/12/31 00:31:20;;;;;;;1999.90;999.90;;;;;;;;;;5041397;28;20501;-81
2020/12/31 00:33:46;;;;;;;1999.90;999.90;;;;;;;;;;5039599;28;20032;-80
2020/12/31 00:36:11;;;;;;;1999.90;999.90;;;;;;;;;;5047065;28;20044;-80
2020/12/31 00:38:37;;;;;;;1999.90;999.90;;;;;;;;;;5035413;28;20021;-81
2020/12/31 00:41:02;;;;;;;1999.90;999.90;;;;;;;;;;5047125;28;20038;-81
2020/12/31 00:43:28;;;;;;;1999.90;999.90;;;;;;;;;;5048236;28;20381;-80
2020/12/31 00:45:54;;;;;;;1999.90;999.90;;;;;;;;;;5046658;28;20103;-81
2020/12/31 00:48:19;;;;;;;1999.90;999.90;;;;;;;;;;5048197;28;20043;-81
2020/12/31 00:50:45;;;;;;;1999.90;999.90;;;;;;;;;;5038874;28;20037;-80
2020/12/31 00:53:11;;;;;;;1999.90;999.90;;;;;;;;;;5032753;28;20171;-82
2020/12/31 00:55:37;;;;;;;1999.90;999.90;;;;;;;;;;5043717;28;20087;-82
2020/12/31 00:58:03;;;;;;;1999.90;999.90;;;;;;;;;;5045732;28;20033;-82
2020/12/31 01:00:33;;;;;;;1999.90;999.90;;;;;;;;;;5047114;28;20061;-82
2020/12/31 01:03:04;;;;;;;1999.90;999.90;;;;;;;;;;5045390;28;20051;-82
2020/12/31 01:05:30;;;;;;;1999.90;999.90;;;;;;;;;;5042258;28;20029;-82
2020/12/31 01:07:55;;;;;;;1999.90;999.90;;;;;;;;;;5031800;28;20355;-83
2020/12/31 01:10:20;;;;;;;1999.90;999.90;;;;;;;;;;5042743;28;20523;-83
2020/12/31 01:12:46;;;;;;;1999.90;999.90;;;;;;;;;;5037402;28;20470;-82
2020/12/31 01:15:11;;;;;;;1999.90;999.90;;;;;;;;;;5050016;28;20107;-83
2020/12/31 01:17:37;;;;;;;1999.90;999.90;;;;;;;;;;5044540;28;20497;-82
2020/12/31 01:20:03;;;;;;;1999.90;999.90;;;;;;;;;;5044587;28;20128;-83
2020/12/31 01:22:29;;;;;;;1999.90;999.90;;;;;;;;;;5048387;28;20036;-83
2020/12/31 01:24:55;;;;;;;1999.90;999.90;;;;;;;;;;5043749;28;20025;-82
2020/12/31 01:27:20;;;;;;;1999.90;999.90;;;;;;;;;;5035043;28;20018;-83
2020/12/31 01:29:45;;;;;;;1999.90;999.90;;;;;;;;;;5044766;28;20036;-82
2020/12/31 01:32:11;;;;;;;1999.90;999.90;;;;;;;;;;5046483;28;20052;-82
2020/12/31 01:34:36;;;;;;;1999.90;999.90;;;;;;;;;;5045589;28;20033;-81
2020/12/31 01:37:02;;;;;;;1999.90;999.90;;;;;;;;;;5045400;28;20421;-82
2020/12/31 01:39:28;;;;;;;1999.90;999.90;;;;;;;;;;5047311;28;20251;-83
2020/12/31 01:41:53;;;;;;;1999.90;999.90;;;;;;;;;;5041736;28;20032;-83
2020/12/31 01:44:18;;;;;;;1999.90;999.90;;;;;;;;;;5043686;28;20029;-83
2020/12/31 01:46:45;;;;;;;1999.90;999.90;;;;;;;;;;5046407;28;20017;-83
2020/12/31 01:49:12;;;;;;;1999.90;999.90;;;;;;;;;;5044920;28;20060;-83
2020/12/31 01:51:39;;;;;;;1999.90;999.90;;;;;;;;;;5043676;28;20112;-83
2020/12/31 01:54:04;;;;;;;1999.90;999.90;;;;;;;;;;5041999;28;20049;-84
2020/12/31 01:56:32;;;;;;;1999.90;999.90;;;;;;;;;;5047069;28;20013;-83
2020/12/31 01:58:57;;;;;;;1999.90;999.90;;;;;;;;;;5046089;28;20087;-83
2020/12/31 02:01:23;;;;;;;1999.90;999.90;;;;;;;;;;5045081;28;20017;-83
2020/12/31 02:03:49;;;;;;;1999.90;999.90;;;;;;;;;;5050883;28;20098;-83
2020/12/31 02:06:15;;;;;;;1999.90;999.90;;;;;;;;;;5042397;28;20022;-83
2020/12/31 02:08:42;;;;;;;1999.90;999.90;;;;;;;;;;5043395;28;20059;-83
2020/12/31 02:11:08;;;;;;;1999.90;999.90;;;;;;;;;;5031910;28;20024;-84
2020/12/31 02:13:33;;;;;;;1999.90;999.90;;;;;;;;;;5038126;28;20048;-83
2020/12/31 02:15:58;;;;;;;1999.90;999.90;;;;;;;;;;5038552;28;20473;-83
2020/12/31 02:18:24;;;;;;;1999.90;999.90;;;;;;;;;;5043602;28;20053;-84
2020/12/31 02:20:49;;;;;;;1999.90;999.90;;;;;;;;;;5041216;28;20025;-83
2020/12/31 02:23:15;;;;;;;1999.90;999.90;;;;;;;;;;5040802;28;20039;-83
2020/12/31 02:25:40;;;;;;;1999.90;999.90;;;;;;;;;;5039433;28;20095;-83
2020/12/31 02:28:05;;;;;;;1999.90;999.90;;;;;;;;;;5038780;28;20108;-83
2020/12/31 02:30:31;;;;;;;1999.90;999.90;;;;;;;;;;5047107;28;20045;-83
2020/12/31 02:32:56;;;;;;;1999.90;999.90;;;;;;;;;;5042431;28;20033;-83
2020/12/31 02:35:22;;;;;;;1999.90;999.90;;;;;;;;;;5043632;28;20033;-84
2020/12/31 02:37:47;;;;;;;1999.90;999.90;;;;;;;;;;5039561;28;20508;-83
2020/12/31 02:40:12;;;;;;;1999.90;999.90;;;;;;;;;;5039195;28;20512;-84
2020/12/31 02:42:38;;;;;;;1999.90;999.90;;;;;;;;;;5039076;28;20505;-83
2020/12/31 02:45:04;;;;;;;1999.90;999.90;;;;;;;;;;5037443;28;20061;-84
2020/12/31 02:47:34;;;;;;;1999.90;999.90;;;;;;;;;;5041471;28;20029;-83
2020/12/31 02:50:00;;;;;;;1999.90;999.90;;;;;;;;;;5042114;28;20079;-83
2020/12/31 02:52:25;;;;;;;1999.90;999.90;;;;;;;;;;5045349;28;20029;-83
2020/12/31 02:54:50;;;;;;;1999.90;999.90;;;;;;;;;;5038205;28;20032;-83
2020/12/31 02:57:16;;;;;;;1999.90;999.90;;;;;;;;;;5040246;28;20022;-83
2020/12/31 02:59:41;;;;;;;1999.90;999.90;;;;;;;;;;5039622;28;20037;-83
2020/12/31 03:02:07;;;;;;;1999.90;999.90;;;;;;;;;;5040261;28;20033;-83
2020/12/31 03:04:32;;;;;;;1999.90;999.90;;;;;;;;;;5038156;28;20470;-83
2020/12/31 03:06:58;;;;;;;1999.90;999.90;;;;;;;;;;5042110;28;20060;-83
2020/12/31 03:09:23;;;;;;;1999.90;999.90;;;;;;;;;;5049829;28;20036;-84
2020/12/31 03:11:48;;;;;;;1999.90;999.90;;;;;;;;;;5045896;28;20036;-82
2020/12/31 03:14:14;;;;;;;1999.90;999.90;;;;;;;;;;5041406;28;20029;-82
2020/12/31 03:16:39;;;;;;;1999.90;999.90;;;;;;;;;;5041795;28;20077;-83
2020/12/31 03:19:05;;;;;;;1999.90;999.90;;;;;;;;;;5043558;28;20033;-82
2020/12/31 03:21:30;;;;;;;1999.90;999.90;;;;;;;;;;5048123;28;20358;-83
2020/12/31 03:23:56;;;;;;;1999.90;999.90;;;;;;;;;;5038609;28;20392;-81
2020/12/31 03:26:21;;;;;;;1999.90;999.90;;;;;;;;;;5036624;28;20442;-81
2020/12/31 03:28:46;;;;;;;1999.90;999.90;;;;;;;;;;5041644;28;20102;-82
2020/12/31 03:31:12;;;;;;;1999.90;999.90;;;;;;;;;;5037187;28;20128;-82
2020/12/31 03:33:37;;;;;;;1999.90;999.90;;;;;;;;;;5037971;28;20057;-81
2020/12/31 03:36:03;;;;;;;1999.90;999.90;;;;;;;;;;5037561;28;20017;-82
2020/12/31 03:38:28;;;;;;;1999.90;999.90;;;;;;;;;;5036851;28;20039;-82
2020/12/31 03:40:54;;;;;;;1999.90;999.90;;;;;;;;;;5038980;28;20373;-81
2020/12/31 03:43:19;;;;;;;1999.90;999.90;;;;;;;;;;5036400;28;20414;-82
2020/12/31 03:45:45;;;;;;;1999.90;999.90;;;;;;;;;;5038466;28;20064;-81
2020/12/31 03:48:10;;;;;;;1999.90;999.90;;;;;;;;;;5037624;28;20040;-82
2020/12/31 03:50:36;;;;;;;1999.90;999.90;;;;;;;;;;5037631;28;20021;-82
2020/12/31 03:53:01;;;;;;;1999.90;999.90;;;;;;;;;;5037431;28;20033;-81
2020/12/31 03:55:27;;;;;;;1999.90;999.90;;;;;;;;;;5035483;28;20014;-81
2020/12/31 03:57:53;;;;;;;1999.90;999.90;;;;;;;;;;5038764;28;20093;-81
2020/12/31 04:00:18;;;;;;;1999.90;999.90;;;;;;;;;;5036307;28;20422;-81
2020/12/31 04:02:43;;;;;;;1999.90;999.90;;;;;;;;;;5038564;28;20520;-81
2020/12/31 04:05:09;;;;;;;1999.90;999.90;;;;;;;;;;5037009;28;20017;-80
2020/12/31 04:07:35;;;;;;;1999.90;999.90;;;;;;;;;;5037284;28;20835;-81
2020/12/31 04:10:00;;;;;;;1999.90;999.90;;;;;;;;;;5037532;28;20457;-81
2020/12/31 04:12:26;;;;;;;1999.90;999.90;;;;;;;;;;5048372;28;20128;-80
2020/12/31 04:14:51;;;;;;;1999.90;999.90;;;;;;;;;;5038792;28;20100;-80
2020/12/31 04:17:17;;;;;;;1999.90;999.90;;;;;;;;;;5034758;28;20025;-81
2020/12/31 04:19:42;;;;;;;1999.90;999.90;;;;;;;;;;5038119;28;20482;-81
2020/12/31 04:22:08;;;;;;;1999.90;999.90;;;;;;;;;;5038827;28;20584;-81
2020/12/31 04:24:34;;;;;;;1999.90;999.90;;;;;;;;;;5035895;28;20029;-81
2020/12/31 04:26:59;;;;;;;1999.90;999.90;;;;;;;;;;5036131;28;20036;-81
2020/12/31 04:29:25;;;;;;;1999.90;999.90;;;;;;;;;;5035941;28;20022;-81
2020/12/31 04:31:50;;;;;;;1999.90;999.90;;;;;;;;;;5038267;28;20167;-81
2020/12/31 04:34:15;;;;;;;1999.90;999.90;;;;;;;;;;5036089;28;20503;-82
2020/12/31 04:36:41;;;;;;;1999.90;999.90;;;;;;;;;;5038246;28;20493;-81
2020/12/31 04:39:06;;;;;;;1999.90;999.90;;;;;;;;;;5036498;28;20025;-81
2020/12/31 04:41:32;;;;;;;1999.90;999.90;;;;;;;;;;5036471;28;20069;-81
2020/12/31 04:43:57;;;;;;;1999.90;999.90;;;;;;;;;;5037658;28;20032;-82
2020/12/31 04:46:23;;;;;;;1999.90;999.90;;;;;;;;;;5035977;28;20029;-82
2020/12/31 04:49:14;;;;;;;1999.90;999.90;;;;;;;;;;5041691;28;20020;-81
2020/12/31 04:51:42;;;;;;;1999.90;999.90;;;;;;;;;;5039753;28;20057;-82
2020/12/31 04:54:08;;;;;;;1999.90;999.90;;;;;;;;;;5040034;28;20025;-83
2020/12/31 04:56:34;;;;;;;1999.90;999.90;;;;;;;;;;5044351;28;20035;-82
2020/12/31 04:58:59;;;;;;;1999.90;999.90;;;;;;;;;;5043293;28;20452;-82
2020/12/31 05:01:25;;;;;;;1999.90;999.90;;;;;;;;;;5040958;28;20047;-82
2020/12/31 05:03:50;;;;;;;1999.90;999.90;;;;;;;;;;5046627;28;20373;-83
2020/12/31 05:06:18;;;;;;;1999.90;999.90;;;;;;;;;;5038130;28;20060;-82
2020/12/31 05:08:44;;;;;;;1999.90;999.90;;;;;;;;;;5044839;28;20016;-85
2020/12/31 05:11:10;;;;;;;1999.90;999.90;;;;;;;;;;5044725;28;20541;-84
2020/12/31 05:14:01;;;;;;;1999.90;999.90;;;;;;;;;;5046630;28;20025;-83
2020/12/31 05:16:27;;;;;;;1999.90;999.90;;;;;;;;;;5043561;28;20065;-83
2020/12/31 05:18:53;;;;;;;1999.90;999.90;;;;;;;;;;5042827;28;20064;-83
2020/12/31 05:21:18;;;;;;;1999.90;999.90;;;;;;;;;;5044789;28;20105;-85
2020/12/31 05:23:44;;;;;;;1999.90;999.90;;;;;;;;;;5046945;28;20466;-85
2020/12/31 05:26:10;;;;;;;1999.90;999.90;;;;;;;;;;5043278;28;20527;-86
2020/12/31 05:28:40;;;;;;;1999.90;999.90;;;;;;;;;;5041404;28;20100;-86
2020/12/31 05:31:13;;;;;;;1999.90;999.90;;;;;;;;;;5040178;28;20091;-82
2020/12/31 05:33:39;;;;;;;1999.90;999.90;;;;;;;;;;5040361;28;20033;-83
2020/12/31 05:36:16;;;;;;;1999.90;999.90;;;;;;;;;;5042396;28;20372;-84
2020/12/31 05:38:42;;;;;;;1999.90;999.90;;;;;;;;;;5046058;28;20119;-83
2020/12/31 05:41:08;;;;;;;1999.90;999.90;;;;;;;;;;5043596;28;20627;-83
2020/12/31 05:43:34;;;;;;;1999.90;999.90;;;;;;;;;;5039817;28;20037;-83
2020/12/31 05:46:12;;;;;;;1999.90;999.90;;;;;;;;;;5043298;28;20017;-83
2020/12/31 05:48:38;;;;;;;1999.90;999.90;;;;;;;;;;5041525;28;20083;-84
2020/12/31 05:51:19;;;;;;;1999.90;999.90;;;;;;;;;;5041846;28;20494;-83
2020/12/31 05:53:46;;;;;;;1999.90;999.90;;;;;;;;;;5042202;28;20104;-83
2020/12/31 05:56:12;;;;;;;1999.90;999.90;;;;;;;;;;5040444;28;20037;-83
2020/12/31 05:58:42;;;;;;;1999.90;999.90;;;;;;;;;;5041138;28;20021;-83
2020/12/31 06:01:11;;;;;;;1999.90;999.90;;;;;;;;;;5040158;28;20032;-83
2020/12/31 06:03:37;;;;;;;1999.90;999.90;;;;;;;;;;5040139;28;20094;-83
2020/12/31 06:06:04;;;;;;;1999.90;999.90;;;;;;;;;;5039601;28;20553;-83
2020/12/31 06:08:31;;;;;;;1999.90;999.90;;;;;;;;;;5038983;28;20013;-83
2020/12/31 06:11:00;;;;;;;1999.90;999.90;;;;;;;;;;5040574;28;20452;-83
2020/12/31 06:13:33;;;;;;;1999.90;999.90;;;;;;;;;;5038685;28;20462;-83
2020/12/31 06:16:02;;;;;;;1999.90;999.90;;;;;;;;;;5042187;28;20046;-82
2020/12/31 06:18:31;;;;;;;1999.90;999.90;;;;;;;;;;5038493;28;20501;-83
2020/12/31 06:21:03;;;;;;;1999.90;999.90;;;;;;;;;;5040239;28;20036;-83
2020/12/31 06:23:38;;;;;;;1999.90;999.90;;;;;;;;;;5041064;28;20510;-83
2020/12/31 06:26:11;;;;;;;1999.90;999.90;;;;;;;;;;5041663;28;20025;-83
2020/12/31 06:28:38;;;;;;;1999.90;999.90;;;;;;;;;;5039267;28;20071;-83
2020/12/31 06:31:04;;;;;;;1999.90;999.90;;;;;;;;;;5038552;28;20038;-83
2020/12/31 06:33:48;;;;;;;1999.90;999.90;;;;;;;;;;5041402;28;20040;-83
2020/12/31 06:36:13;;;;;;;1999.90;999.90;;;;;;;;;;5058291;28;20032;-83
2020/12/31 06:38:47;;;;;;;1999.90;999.90;;;;;;;;;;5039245;28;20022;-83
2020/12/31 06:41:48;;;;;;;1999.90;999.90;;;;;;;;;;5038235;28;20064;-83
2020/12/31 06:44:15;;;;;;;1999.90;999.90;;;;;;;;;;5029945;28;20045;-83
2020/12/31 06:46:43;;;;;;;1999.90;999.90;;;;;;;;;;5036644;28;20046;-83
2020/12/31 06:49:09;;;;;;;1999.90;999.90;;;;;;;;;;5040414;28;20482;-83
2020/12/31 06:51:34;;;;;;;1999.90;999.90;;;;;;;;;;5040820;28;20029;-83
2020/12/31 06:54:00;;;;;;;1999.90;999.90;;;;;;;;;;5038904;28;20112;-83
2020/12/31 06:56:41;;;;;;;1999.90;999.90;;;;;;;;;;5037801;28;20014;-83
2020/12/31 06:59:25;;;;;;;1999.90;999.90;;;;;;;;;;5038967;28;20044;-89
2020/12/31 07:01:51;;;;;;;1999.90;999.90;;;;;;;;;;5037783;28;20037;-83
2020/12/31 07:04:32;;;;;;;1999.90;999.90;;;;;;;;;;5041259;28;20526;-85
2020/12/31 07:06:58;;;;;;;1999.90;999.90;;;;;;;;;;5041320;28;20510;-84
2020/12/31 07:09:28;;;;;;;1999.90;999.90;;;;;;;;;;5041505;28;20028;-84
2020/12/31 07:12:02;;;;;;;1999.90;999.90;;;;;;;;;;5039783;28;20128;-85
2020/12/31 07:14:28;;;;;;;1999.90;999.90;;;;;;;;;;5043855;28;20028;-84
2020/12/31 07:17:02;;;;;;;1999.90;999.90;;;;;;;;;;5038797;28;20024;-82
2020/12/31 07:19:28;;;;;;;1999.90;999.90;;;;;;;;;;5037275;28;20060;-82
2020/12/31 07:21:53;;;;;;;1999.90;999.90;;;;;;;;;;5042658;28;20040;-82
2020/12/31 07:24:22;;;;;;;1999.90;999.90;;;;;;;;;;5038971;28;20048;-83
2020/12/31 07:26:54;;;;;;;1999.90;999.90;;;;;;;;;;5043019;28;20116;-87
2020/12/31 07:29:22;;;;;;;1999.90;999.90;;;;;;;;;;5041541;28;20459;-84
2020/12/31 07:31:49;;;;;;;1999.90;999.90;;;;;;;;;;5042577;28;20075;-82
2020/12/31 07:34:28;;;;;;;1999.90;999.90;;;;;;;;;;5039898;28;20477;-81
2020/12/31 07:37:07;;;;;;;1999.90;999.90;;;;;;;;;;5038744;28;20037;-80
2020/12/31 07:39:33;;;;;;;1999.90;999.90;;;;;;;;;;5037113;28;20508;-80
2020/12/31 07:42:12;;;;;;;1999.90;999.90;;;;;;;;;;5038083;28;20049;-81
2020/12/31 07:44:53;;;;;;;1999.90;999.90;;;;;;;;;;5038097;28;20104;-81
2020/12/31 07:47:20;;;;;;;1999.90;999.90;;;;;;;;;;5037041;28;20039;-81
2020/12/31 07:49:50;;;;;;;1999.90;999.90;;;;;;;;;;5039078;28;20017;-81
2020/12/31 07:52:16;;;;;;;1999.90;999.90;;;;;;;;;;5037878;28;20044;-81
2020/12/31 07:54:41;;;;;;;1999.90;999.90;;;;;;;;;;5038022;28;20378;-80
2020/12/31 07:57:10;;;;;;;1999.90;999.90;;;;;;;;;;5035706;28;20056;-81
2020/12/31 07:59:43;;;;;;;1999.90;999.90;;;;;;;;;;5042433;28;20017;-82
2020/12/31 08:02:09;;;;;;;1999.90;999.90;;;;;;;;;;5036371;28;20072;-82
2020/12/31 08:04:34;;;;;;;1999.90;999.90;;;;;;;;;;5044212;28;20359;-86
2020/12/31 08:07:03;;;;;;;1999.90;999.90;;;;;;;;;;5040857;28;20427;-85
2020/12/31 08:09:29;;;;;;;1999.90;999.90;;;;;;;;;;5037818;28;20057;-86
2020/12/31 08:11:54;;;;;;;1999.90;999.90;;;;;;;;;;5041898;28;20076;-91
2020/12/31 08:14:19;;;;;;;1999.90;999.90;;;;;;;;;;5045939;28;20024;-85
2020/12/31 08:17:01;;;;;;;1999.90;999.90;;;;;;;;;;5042167;28;20436;-88
2020/12/31 08:19:27;;;;;;;1999.90;999.90;;;;;;;;;;5038304;28;20055;-88
2020/12/31 08:21:55;;;;;;;1999.90;999.90;;;;;;;;;;5045877;28;20060;-88
2020/12/31 08:24:21;;;;;;;1999.90;999.90;;;;;;;;;;5042398;28;20036;-88
2020/12/31 08:26:56;;;;;;;1999.90;999.90;;;;;;;;;;5045919;28;20017;-88
2020/12/31 08:29:24;;;;;;;1999.90;999.90;;;;;;;;;;5037788;28;20025;-88
2020/12/31 08:31:52;;;;;;;1999.90;999.90;;;;;;;;;;5046125;28;20325;-87
2020/12/31 08:34:23;;;;;;;1999.90;999.90;;;;;;;;;;5042480;28;20056;-88
2020/12/31 08:36:50;;;;;;;1999.90;999.90;;;;;;;;;;5042632;28;20029;-87
2020/12/31 08:39:16;;;;;;;1999.90;999.90;;;;;;;;;;5048342;28;20637;-88
2020/12/31 08:41:55;;;;;;;1999.90;999.90;;;;;;;;;;5045891;28;20068;-89
2020/12/31 08:44:23;;;;;;;1999.90;999.90;;;;;;;;;;5045260;28;20025;-87
2020/12/31 08:46:48;;;;;;;1999.90;999.90;;;;;;;;;;5052110;28;20020;-88
2020/12/31 08:49:21;;;;;;;1999.90;999.90;;;;;;;;;;5039050;28;20085;-88
2020/12/31 08:51:48;;;;;;;1999.90;999.90;;;;;;;;;;5044961;28;20037;-88
2020/12/31 08:54:14;;;;;;;1999.90;999.90;;;;;;;;;;5037061;28;20020;-87
2020/12/31 08:56:40;;;;;;;1999.90;999.90;;;;;;;;;;5041124;28;20033;-89
2020/12/31 08:59:06;;;;;;;1999.90;999.90;;;;;;;;;;5048604;28;20071;-88
2020/12/31 09:01:32;;;;;;;1999.90;999.90;;;;;;;;;;5039571;28;20055;-88
2020/12/31 09:04:10;;;;;;;1999.90;999.90;;;;;;;;;;5036303;28;20470;-88
2020/12/31 09:06:37;;;;;;;1999.90;999.90;;;;;;;;;;5039697;28;20028;-89
2020/12/31 09:09:02;;;;;;;1999.90;999.90;;;;;;;;;;5044203;28;20474;-88
2020/12/31 09:11:28;;;;;;;1999.90;999.90;;;;;;;;;;5048877;28;20087;-89
2020/12/31 09:14:04;;;;;;;1999.90;999.90;;;;;;;;;;5041321;28;20021;-89
2020/12/31 09:16:29;;;;;;;;;;;;;;;;;;5039516;28;20127;-89
2020/12/31 09:18:59;;;;;;;1999.90;999.90;;;;;;;;;;5038021;28;19940;-90
2020/12/31 09:21:29;;;;;;;1999.90;999.90;;;;;;;;;;5042614;28;20060;-87
2020/12/31 09:23:54;;;;;;;1999.90;999.90;;;;;;;;;;5039486;28;20025;-89
2020/12/31 09:26:23;;;;;;;1999.90;999.90;;;;;;;;;;5039130;28;20029;-88
2020/12/31 09:28:49;;;;;;;1999.90;999.90;;;;;;;;;;5038450;28;20049;-89
2020/12/31 09:31:15;;;;;;;1999.90;999.90;;;;;;;;;;5047852;28;20068;-90
2020/12/31 09:33:40;;;;;;;1999.90;999.90;;;;;;;;;;5046791;28;20025;-88
2020/12/31 09:36:06;;;;;;;1999.90;999.90;;;;;;;;;;5050243;28;20116;-89
2020/12/31 09:38:31;;;;;;;1999.90;999.90;;;;;;;;;;5052309;28;20053;-88
2020/12/31 09:40:57;;;;;;;1999.90;999.90;;;;;;;;;;5045177;28;20028;-89
2020/12/31 09:43:22;;;;;;;1999.90;999.90;;;;;;;;;;5046122;28;20423;-88
2020/12/31 09:45:47;;;;;;;1999.90;999.90;;;;;;;;;;5051750;28;20515;-89
2020/12/31 09:48:13;;;;;;;1999.90;999.90;;;;;;;;;;5051282;28;20025;-88
2020/12/31 09:50:38;;;;;;;1999.90;999.90;;;;;;;;;;5044353;28;20035;-89
2020/12/31 09:53:04;;;;;;;1999.90;999.90;;;;;;;;;;5043338;28;20471;-88
2020/12/31 09:55:29;;;;;;;1999.90;999.90;;;;;;;;;;5053324;28;20019;-90
2020/12/31 09:57:54;;;;;;;1999.90;999.90;;;;;;;;;;5049379;28;20029;-89
2020/12/31 10:00:20;;;;;;;1999.90;999.90;;;;;;;;;;5045161;28;20511;-84
2020/12/31 10:02:45;;;;;;;1999.90;999.90;;;;;;;;;;5036501;28;20025;-85
2020/12/31 10:05:11;;;;;;;1999.90;999.90;;;;;;;;;;5040263;28;20040;-86
2020/12/31 10:07:36;;;;;;;1999.90;999.90;;;;;;;;;;5050435;28;20088;-86
2020/12/31 10:10:02;;;;;;;1999.90;999.90;;;;;;;;;;5042320;28;20044;-85
2020/12/31 10:12:28;;;;;;;1999.90;999.90;;;;;;;;;;5046544;28;20068;-85
2020/12/31 10:14:54;;;;;;;1999.90;999.90;;;;;;;;;;5039485;28;20061;-86
2020/12/31 10:17:19;;;;;;;1999.90;999.90;;;;;;;;;;5046520;28;20469;-85
2020/12/31 10:19:45;;;;;;;1999.90;999.90;;;;;;;;;;5049259;28;20075;-85
2020/12/31 10:22:10;;;;;;;1999.90;999.90;;;;;;;;;;5038049;28;20032;-87
2020/12/31 10:24:36;;;;;;;1999.90;999.90;;;;;;;;;;5040808;28;20482;-87
2020/12/31 10:27:01;;;;;;;1999.90;999.90;;;;;;;;;;5045775;28;20091;-92
2020/12/31 10:29:26;;;;;;;1999.90;999.90;;;;;;;;;;5046364;28;20026;-92
2020/12/31 10:31:52;;;;;;;1999.90;999.90;;;;;;;;;;5043827;28;20048;-93
2020/12/31 10:34:18;;;;;;;1999.90;999.90;;;;;;;;;;5047444;28;20039;-92
2020/12/31 10:36:48;;;;;;;1999.90;999.90;;;;;;;;;;5050013;28;20031;-85
2020/12/31 10:39:14;;;;;;;1999.90;999.90;;;;;;;;;;5033406;28;20474;-88
2020/12/31 10:41:39;;;;;;;1999.90;999.90;;;;;;;;;;5050278;28;20017;-88
2020/12/31 10:44:04;;;;;;;1999.90;999.90;;;;;;;;;;5048942;28;20095;-87
2020/12/31 10:46:30;;;;;;;1999.90;999.90;;;;;;;;;;5038699;28;20511;-87
2020/12/31 10:48:55;;;;;;;1999.90;999.90;;;;;;;;;;5042955;28;20603;-87
2020/12/31 10:51:21;;;;;;;1999.90;999.90;;;;;;;;;;5037483;28;20025;-83
2020/12/31 10:53:46;;;;;;;1999.90;999.90;;;;;;;;;;5035559;28;20033;-82
2020/12/31 10:56:17;;;;;;;1999.90;999.90;;;;;;;;;;5044029;28;20445;-82
2020/12/31 10:58:42;;;;;;;1999.90;999.90;;;;;;;;;;5043343;28;20029;-85
2020/12/31 11:01:08;;;;;;;1999.90;999.90;;;;;;;;;;5041252;28;20031;-84
2020/12/31 11:03:33;;;;;;;1999.90;999.90;;;;;;;;;;5051058;28;20025;-85
2020/12/31 11:05:58;;;;;;;1999.90;999.90;;;;;;;;;;5044261;28;20055;-88
2020/12/31 11:08:24;;;;;;;1999.90;999.90;;;;;;;;;;5042519;28;20025;-88
2020/12/31 11:10:49;;;;;;;1999.90;999.90;;;;;;;;;;5046536;28;20063;-86
2020/12/31 11:13:15;;;;;;;1999.90;999.90;;;;;;;;;;5044032;28;20036;-88
2020/12/31 11:15:41;;;;;;;1999.90;999.90;;;;;;;;;;5038633;28;20018;-85
2020/12/31 11:18:06;;;;;;;1999.90;999.90;;;;;;;;;;5042388;28;20421;-86
2020/12/31 11:20:32;;;;;;;1999.90;999.90;;;;;;;;;;5040154;28;20018;-88
2020/12/31 11:22:57;;;;;;;1999.90;999.90;;;;;;;;;;5039038;28;20059;-86
2020/12/31 11:25:23;;;;;;;1999.90;999.90;;;;;;;;;;5042215;28;20067;-87
2020/12/31 11:27:48;;;;;;;1999.90;999.90;;;;;;;;;;5042161;28;20035;-85
2020/12/31 11:30:13;;;;;;;1999.90;999.90;;;;;;;;;;5042284;28;20042;-87
2020/12/31 11:32:39;;;;;;;1999.90;999.90;;;;;;;;;;5042193;28;20092;-90
2020/12/31 11:35:05;;;;;;;1999.90;999.90;;;;;;;;;;5037532;28;20490;-85
2020/12/31 11:37:34;;;;;;;1999.90;999.90;;;;;;;;;;5046199;28;20033;-89
2020/12/31 11:40:00;;;;;;;1999.90;999.90;;;;;;;;;;5036475;28;20394;-87
2020/12/31 11:42:32;;;;;;;1999.90;999.90;;;;;;;;;;5041189;28;20029;-87
2020/12/31 11:44:57;;;;;;;1999.90;999.90;;;;;;;;;;5043013;28;20381;-79
2020/12/31 11:47:22;;;;;;;1999.90;999.90;;;;;;;;;;5045220;28;20032;-83
2020/12/31 11:49:48;;;;;;;1999.90;999.90;;;;;;;;;;5049632;28;20495;-84
2020/12/31 11:52:13;;;;;;;1999.90;999.90;;;;;;;;;;5047972;28;20034;-83
2020/12/31 11:54:39;;;;;;;1999.90;999.90;;;;;;;;;;5041621;28;20025;-83
2020/12/31 11:57:05;;;;;;;1999.90;999.90;;;;;;;;;;5046721;28;20052;-84
2020/12/31 11:59:30;;;;;;;1999.90;999.90;;;;;;;;;;5051923;28;20469;-84
2020/12/31 12:01:55;;;;;;;1999.90;999.90;;;;;;;;;;5041292;28;20116;-84
2020/12/31 12:04:21;;;;;;;1999.90;999.90;;;;;;;;;;5046685;28;20017;-83
2020/12/31 12:06:54;;;;;;;1999.90;999.90;;;;;;;;;;5043838;28;20381;-84
2020/12/31 12:09:20;;;;;;;1999.90;999.90;;;;;;;;;;5041448;28;20155;-86
2020/12/31 12:11:45;;;;;;;1999.90;999.90;;;;;;;;;;5044582;28;20777;-83
2020/12/31 12:14:11;;;;;;;1999.90;999.90;;;;;;;;;;5043655;28;20030;-83
2020/12/31 12:16:38;;;;;;;1999.90;999.90;;;;;;;;;;5044301;28;20009;-85
2020/12/31 12:19:04;;;;;;;1999.90;999.90;;;;;;;;;;5041696;28;20133;-83
2020/12/31 12:21:29;;;;;;;1999.90;999.90;;;;;;;;;;5042130;28;20111;-83
2020/12/31 12:23:55;;;;;;;1999.90;999.90;;;;;;;;;;5035873;28;20045;-82
2020/12/31 12:26:20;;;;;;;1999.90;999.90;;;;;;;;;;5044657;28;20029;-83
2020/12/31 12:28:45;;;;;;;1999.90;999.90;;;;;;;;;;5045024;28;20112;-83
2020/12/31 12:31:11;;;;;;;1999.90;999.90;;;;;;;;;;5036042;28;20045;-84
2020/12/31 12:33:36;;;;;;;1999.90;999.90;;;;;;;;;;5040233;28;20108;-85
2020/12/31 12:36:02;;;;;;;1999.90;999.90;;;;;;;;;;5037593;28;20077;-84
2020/12/31 12:38:27;;;;;;;1999.90;999.90;;;;;;;;;;5037058;28;20033;-83
2020/12/31 12:40:53;;;;;;;1999.90;999.90;;;;;;;;;;5038992;28;20077;-84
2020/12/31 12:43:18;;;;;;;1999.90;999.90;;;;;;;;;;5035540;28;20363;-84
2020/12/31 12:45:43;;;;;;;1999.90;999.90;;;;;;;;;;5042025;28;20017;-84
2020/12/31 12:48:09;;;;;;;1999.90;999.90;;;;;;;;;;5040359;28;20036;-83
2020/12/31 12:50:34;;;;;;;1999.90;999.90;;;;;;;;;;5055147;28;20104;-82
2020/12/31 12:53:00;;;;;;;1999.90;999.90;;;;;;;;;;5048345;28;20065;-84
2020/12/31 12:55:25;;;;;;;1999.90;999.90;;;;;;;;;;5039846;28;20467;-83
2020/12/31 12:57:50;;;;;;;1999.90;999.90;;;;;;;;;;5036101;28;20370;-84
2020/12/31 13:00:16;;;;;;;1999.90;999.90;;;;;;;;;;5043798;28;20017;-83
2020/12/31 13:02:42;;;;;;;1999.90;999.90;;;;;;;;;;5037784;28;20040;-83
2020/12/31 13:05:07;;;;;;;1999.90;999.90;;;;;;;;;;5043003;28;20024;-83
2020/12/31 13:07:33;;;;;;;1999.90;999.90;;;;;;;;;;5045671;28;20473;-83
2020/12/31 13:09:58;;;;;;;1999.90;999.90;;;;;;;;;;5046525;28;20060;-83
2020/12/31 13:12:23;;;;;;;1999.90;999.90;;;;;;;;;;5038159;28;20037;-83
2020/12/31 13:14:49;;;;;;;1999.90;999.90;;;;;;;;;;5040027;28;20393;-83
2020/12/31 13:17:15;;;;;;;1999.90;999.90;;;;;;;;;;5044910;28;20055;-85
2020/12/31 13:19:40;;;;;;;1999.90;999.90;;;;;;;;;;5045093;28;20024;-83
2020/12/31 13:22:06;;;;;;;1999.90;999.90;;;;;;;;;;5046451;28;20072;-85
2020/12/31 13:24:31;;;;;;;1999.90;999.90;;;;;;;;;;5050349;28;20040;-82
2020/12/31 13:26:57;;;;;;;1999.90;999.90;;;;;;;;;;5043274;28;20124;-84
2020/12/31 13:29:22;;;;;;;1999.90;999.90;;;;;;;;;;5041482;28;20053;-83
2020/12/31 13:31:48;;;;;;;1999.90;999.90;;;;;;;;;;5040543;28;20140;-82
2020/12/31 13:34:13;;;;;;;1999.90;999.90;;;;;;;;;;5042592;28;20028;-84
2020/12/31 13:36:39;;;;;;;1999.90;999.90;;;;;;;;;;5049734;28;20047;-86
2020/12/31 13:39:04;;;;;;;1999.90;999.90;;;;;;;;;;5043777;28;20022;-85
2020/12/31 13:41:30;;;;;;;1999.90;999.90;;;;;;;;;;5040515;28;20148;-86